Time;durP1;ratioP1;P1;durP2;ratioP2;P2;SDS_P1;SDS_P2;PMS_P1;PMS_P2;Temp;Humidity;BMP_temperature;BMP_pressure;BME280_temperature;BME280_humidity;BME280_pressure;Samples;Min_cycle;Max_cycle;Signal;HPM_P1;HPM_P2
2022/12/02 00:02:29;;;;;;;78.93;37.20;;;;;;;5.86;100.00;102400.75;5089925;28;20032;-68
2022/12/02 00:05:01;;;;;;;71.68;35.17;;;;;;;5.82;100.00;102399.38;5092249;28;20085;-69
2022/12/02 00:07:26;;;;;;;79.65;36.70;;;;;;;5.80;100.00;102395.19;5091741;28;20490;-70
2022/12/02 00:09:52;;;;;;;81.25;37.75;;;;;;;5.80;100.00;102396.00;5081661;28;20145;-67
2022/12/02 00:12:23;;;;;;;86.05;40.50;;;;;;;5.75;100.00;102398.34;5060155;28;20597;-69
2022/12/02 00:15:21;;;;;;;81.50;37.50;;;;;;;5.75;100.00;102392.97;5070748;28;20059;-68
2022/12/02 00:17:46;;;;;;;79.82;37.90;;;;;;;5.69;100.00;102398.94;5075389;28;20082;-69
2022/12/02 00:20:11;;;;;;;84.43;39.22;;;;;;;5.60;100.00;102400.72;5073979;28;20028;-69
2022/12/02 00:22:37;;;;;;;89.82;39.97;;;;;;;5.57;100.00;102386.75;5075423;28;20507;-69
2022/12/02 00:25:02;;;;;;;81.45;37.67;;;;;;;5.56;100.00;102388.59;5075125;28;20107;-69
2022/12/02 00:27:27;;;;;;;81.65;37.25;;;;;;;5.56;100.00;102385.06;5074956;28;20040;-69
2022/12/02 00:29:53;;;;;;;82.93;38.33;;;;;;;5.58;100.00;102388.44;5073807;28;20032;-67
2022/12/02 00:32:18;;;;;;;79.20;37.97;;;;;;;5.57;100.00;102384.06;5070454;28;20455;-68
2022/12/02 00:34:43;;;;;;;74.20;37.63;;;;;;;5.52;100.00;102386.38;5067856;28;20032;-68
2022/12/02 00:37:08;;;;;;;66.50;36.55;;;;;;;5.53;100.00;102377.31;5074912;28;20031;-69
2022/12/02 00:39:33;;;;;;;65.88;34.08;;;;;;;5.54;100.00;102376.31;5075121;28;20032;-68
2022/12/02 00:41:59;;;;;;;62.20;33.65;;;;;;;5.51;100.00;102374.78;5076167;28;20035;-71
2022/12/02 00:47:08;;;;;;;66.97;34.72;;;;;;;5.46;100.00;102367.16;5077420;28;20046;-68
2022/12/02 00:49:33;;;;;;;67.55;33.80;;;;;;;5.46;100.00;102369.84;5074994;28;20572;-68
2022/12/02 00:51:58;;;;;;;71.28;34.85;;;;;;;5.45;100.00;102373.56;5074832;28;20100;-68
2022/12/02 00:54:23;;;;;;;68.30;34.90;;;;;;;5.45;100.00;102365.50;5074544;28;20131;-68
2022/12/02 00:56:49;;;;;;;72.78;34.75;;;;;;;5.46;100.00;102367.16;5074870;28;20031;-69
2022/12/02 00:59:14;;;;;;;75.57;36.88;;;;;;;5.45;100.00;102357.44;5074739;28;20483;-69
2022/12/02 01:01:43;;;;;;;65.80;34.45;;;;;;;5.46;100.00;102367.16;5072492;28;20388;-69
2022/12/02 01:04:08;;;;;;;68.57;33.55;;;;;;;5.43;100.00;102366.66;5073352;28;20040;-68
2022/12/02 01:06:33;;;;;;;66.18;33.90;;;;;;;5.38;100.00;102358.22;5074759;28;20021;-68
2022/12/02 01:08:59;;;;;;;65.22;32.80;;;;;;;5.35;100.00;102359.38;5074657;28;20094;-68
2022/12/02 01:11:24;;;;;;;66.82;34.97;;;;;;;5.30;100.00;102361.66;5074542;28;20119;-68
2022/12/02 01:13:50;;;;;;;70.45;33.33;;;;;;;5.30;100.00;102359.00;5074665;28;20112;-68
2022/12/02 01:16:15;;;;;;;66.28;34.35;;;;;;;5.29;100.00;102370.72;5072682;28;20047;-68
2022/12/02 01:18:40;;;;;;;60.15;31.92;;;;;;;5.30;100.00;102364.34;5062811;28;20043;-67
2022/12/02 01:21:06;;;;;;;65.60;34.65;;;;;;;5.32;100.00;102365.88;5074031;28;20078;-68
2022/12/02 01:23:31;;;;;;;62.20;33.05;;;;;;;5.30;100.00;102361.66;5074639;28;20464;-68
2022/12/02 01:25:56;;;;;;;64.80;33.38;;;;;;;5.30;100.00;102359.00;5074415;28;20044;-68
2022/12/02 01:28:21;;;;;;;65.53;32.88;;;;;;;5.28;100.00;102360.97;5073734;28;20024;-68
2022/12/02 01:30:47;;;;;;;63.03;33.30;;;;;;;5.27;100.00;102365.50;5073953;28;20392;-69
2022/12/02 01:33:12;;;;;;;65.00;33.50;;;;;;;5.25;100.00;102361.28;5072633;28;20025;-67
2022/12/02 01:35:38;;;;;;;65.43;33.28;;;;;;;5.23;100.00;102360.59;5090342;28;20036;-68
2022/12/02 01:38:03;;;;;;;61.15;31.65;;;;;;;5.23;100.00;102361.41;5074299;28;20078;-68
2022/12/02 01:40:28;;;;;;;60.22;34.05;;;;;;;5.22;100.00;102358.88;5062779;28;20452;-67
2022/12/02 01:42:54;;;;;;;63.17;31.95;;;;;;;5.23;100.00;102355.22;5072959;28;20059;-66
2022/12/02 01:45:20;;;;;;;60.72;32.13;;;;;;;5.23;100.00;102361.41;5093687;28;20059;-67
2022/12/02 01:47:45;;;;;;;64.72;33.75;;;;;;;5.24;100.00;102362.25;5093818;28;20047;-68
2022/12/02 01:50:13;;;;;;;68.45;34.10;;;;;;;5.25;100.00;102358.59;5093992;28;20117;-68
2022/12/02 01:52:39;;;;;;;66.20;31.88;;;;;;;5.24;100.00;102362.25;5094166;28;20456;-68
2022/12/02 01:55:10;;;;;;;61.45;31.67;;;;;;;5.21;100.00;102360.75;5094000;28;20027;-68
2022/12/02 01:57:36;;;;;;;66.57;33.13;;;;;;;5.20;100.00;102355.53;5094151;28;20058;-68
2022/12/02 02:00:03;;;;;;;67.45;33.40;;;;;;;5.19;100.00;102353.84;5094030;28;20531;-68
2022/12/02 02:02:30;;;;;;;60.90;30.17;;;;;;;5.16;100.00;102349.59;5079401;28;20032;-69
2022/12/02 02:05:01;;;;;;;66.22;30.65;;;;;;;5.17;100.00;102361.19;5069719;28;20028;-67
2022/12/02 02:07:27;;;;;;;66.63;30.95;;;;;;;5.16;100.00;102352.28;5065247;28;20052;-69
2022/12/02 02:09:54;;;;;;;64.65;30.60;;;;;;;5.14;100.00;102351.59;5088863;28;20124;-68
2022/12/02 02:12:20;;;;;;;60.88;31.05;;;;;;;5.10;100.00;102358.25;5073097;28;20040;-68
2022/12/02 02:14:46;;;;;;;58.38;29.70;;;;;;;5.07;100.00;102356.75;5073270;28;20116;-68
2022/12/02 02:17:11;;;;;;;61.40;30.75;;;;;;;5.05;100.00;102352.53;5073033;28;20103;-68
2022/12/02 02:19:36;;;;;;;62.00;30.33;;;;;;;5.04;100.00;102351.69;5073098;28;20044;-69
2022/12/02 02:22:22;;;;;;;57.95;28.85;;;;;;;5.06;100.00;102356.91;5092635;28;20122;-69
2022/12/02 02:24:47;;;;;;;62.92;30.55;;;;;;;5.05;100.00;102352.53;5072716;28;20037;-68
2022/12/02 02:27:12;;;;;;;61.95;30.40;;;;;;;5.04;100.00;102354.38;5068800;28;20035;-69
2022/12/02 02:29:38;;;;;;;66.97;32.15;;;;;;;5.03;100.00;102351.81;5072886;28;20440;-68
2022/12/02 02:32:03;;;;;;;70.70;33.55;;;;;;;5.04;100.00;102348.13;5072720;28;20614;-69
2022/12/02 02:34:29;;;;;;;63.78;31.83;;;;;;;5.04;100.00;102349.00;5072217;28;20039;-69
2022/12/02 02:36:55;;;;;;;65.00;30.73;;;;;;;5.01;100.00;102354.63;5093130;28;20028;-70
2022/12/02 02:39:21;;;;;;;67.15;31.52;;;;;;;4.95;100.00;102353.44;5092470;28;20028;-69
2022/12/02 02:41:47;;;;;;;68.45;33.05;;;;;;;4.91;100.00;102345.84;5093086;28;20036;-69
2022/12/02 02:44:13;;;;;;;66.50;32.30;;;;;;;4.91;100.00;102345.84;5092796;28;20167;-69
2022/12/02 02:46:38;;;;;;;65.05;32.15;;;;;;;4.90;100.00;102344.13;5087320;28;20033;-69
2022/12/02 02:49:04;;;;;;;62.40;32.25;;;;;;;4.90;100.00;102339.59;5060898;28;20041;-69
2022/12/02 02:51:30;;;;;;;73.25;33.97;;;;;;;4.87;100.00;102334.53;5088039;28;20024;-68
2022/12/02 02:53:55;;;;;;;69.30;33.08;;;;;;;4.86;100.00;102337.38;5092856;28;20051;-69
2022/12/02 02:56:20;;;;;;;60.92;30.35;;;;;;;4.85;100.00;102330.34;5092376;28;20028;-68
2022/12/02 02:58:46;;;;;;;64.88;30.48;;;;;;;4.80;100.00;102336.13;5093135;28;20093;-68
2022/12/02 03:01:17;;;;;;;65.10;30.48;;;;;;;4.72;100.00;102330.69;5090367;28;20032;-69
2022/12/02 03:03:47;;;;;;;64.40;28.85;;;;;;;4.73;100.00;102327.84;5092911;28;20047;-69
2022/12/02 03:06:13;;;;;;;67.25;29.55;;;;;;;4.68;100.00;102329.28;5089684;28;20024;-68
2022/12/02 03:08:41;;;;;;;62.92;30.85;;;;;;;4.67;100.00;102323.09;5091320;28;20479;-68
2022/12/02 03:11:07;;;;;;;59.40;28.58;;;;;;;4.64;100.00;102314.53;5067965;28;20056;-70
2022/12/02 03:13:36;;;;;;;58.10;28.48;;;;;;;4.61;100.00;102315.66;5071210;28;20075;-68
2022/12/02 03:16:03;;;;;;;56.08;27.88;;;;;;;4.59;100.00;102310.44;5072504;28;20155;-69
2022/12/02 03:18:29;;;;;;;57.30;28.27;;;;;;;4.59;100.00;102310.44;5072501;28;20459;-68
2022/12/02 03:20:56;;;;;;;57.13;28.23;;;;;;;4.58;100.00;102308.75;5072391;28;20035;-70
2022/12/02 03:23:21;;;;;;;55.60;28.33;;;;;;;4.55;100.00;102316.25;5080039;28;20494;-68
2022/12/02 03:25:47;;;;;;;50.97;26.90;;;;;;;4.55;100.00;102303.69;5092538;28;20032;-67
2022/12/02 03:28:12;;;;;;;57.63;27.02;;;;;;;4.54;100.00;102303.81;5092265;28;20024;-67
2022/12/02 03:30:38;;;;;;;53.35;28.38;;;;;;;4.51;100.00;102307.66;5092497;28;20452;-69
2022/12/02 03:33:04;;;;;;;51.88;27.02;;;;;;;4.50;100.00;102316.69;5065304;28;20059;-68
2022/12/02 03:35:29;;;;;;;54.63;27.95;;;;;;;4.47;100.00;102310.78;5068336;28;20464;-69
2022/12/02 03:37:55;;;;;;;53.40;28.63;;;;;;;4.44;100.00;102318.13;5075112;28;20482;-68
2022/12/02 03:40:20;;;;;;;54.92;27.67;;;;;;;4.41;100.00;102317.59;5091946;28;20111;-68
2022/12/02 03:42:46;;;;;;;54.17;26.45;;;;;;;4.36;100.00;102310.00;5092415;28;20032;-68
2022/12/02 03:45:12;;;;;;;52.13;25.48;;;;;;;4.32;100.00;102308.59;5092138;28;20032;-67
2022/12/02 03:47:39;;;;;;;53.35;26.30;;;;;;;4.27;100.00;102305.50;5092319;28;20455;-68
2022/12/02 03:50:05;;;;;;;52.55;26.63;;;;;;;4.22;100.00;102294.38;5092196;28;20036;-69
2022/12/02 03:52:30;;;;;;;53.78;26.20;;;;;;;4.23;100.00;102306.81;5093120;28;20028;-69
2022/12/02 03:54:56;;;;;;;56.97;26.33;;;;;;;4.19;100.00;102297.38;5066944;28;20499;-68
2022/12/02 03:57:22;;;;;;;56.22;28.40;;;;;;;4.19;100.00;102303.56;5055706;28;20025;-68
2022/12/02 03:59:47;;;;;;;51.30;25.65;;;;;;;4.25;100.00;102296.78;5055599;28;20060;-68
2022/12/02 04:02:12;;;;;;;54.95;25.67;;;;;;;4.25;100.00;102292.25;5052961;28;20033;-68
2022/12/02 04:04:38;;;;;;;55.45;26.00;;;;;;;4.28;100.00;102279.56;5074175;28;20032;-68
2022/12/02 04:07:03;;;;;;;53.83;25.83;;;;;;;4.28;100.00;102291.13;5075458;28;20059;-68
2022/12/02 04:09:28;;;;;;;59.58;27.42;;;;;;;4.28;100.00;102288.44;5074447;28;20048;-68
2022/12/02 04:11:53;;;;;;;52.13;26.52;;;;;;;4.31;100.00;102287.31;5075727;28;20028;-68
2022/12/02 04:14:19;;;;;;;58.72;28.00;;;;;;;4.31;100.00;102288.13;5075124;28;20025;-68
2022/12/02 04:16:44;;;;;;;55.90;26.65;;;;;;;4.33;100.00;102291.50;5070361;28;20056;-67
2022/12/02 04:19:09;;;;;;;57.25;26.88;;;;;;;4.33;100.00;102285.31;5055504;28;20475;-68
2022/12/02 04:21:35;;;;;;;56.28;28.08;;;;;;;4.33;100.00;102283.47;5055246;28;20032;-68
2022/12/02 04:24:00;;;;;;;56.38;27.55;;;;;;;4.32;100.00;102284.47;5072423;28;20036;-68
2022/12/02 04:26:25;;;;;;;57.80;26.90;;;;;;;4.34;100.00;102284.31;5075174;28;20455;-68
2022/12/02 04:28:50;;;;;;;59.08;27.65;;;;;;;4.33;100.00;102285.31;5075223;28;20029;-68
2022/12/02 04:31:16;;;;;;;55.58;26.05;;;;;;;4.29;100.00;102275.88;5075039;28;20470;-68
2022/12/02 04:33:41;;;;;;;54.60;26.67;;;;;;;4.30;100.00;102267.69;5074905;28;20102;-67
2022/12/02 04:36:07;;;;;;;53.40;27.10;;;;;;;4.30;100.00;102280.25;5075191;28;20389;-67
2022/12/02 04:38:32;;;;;;;54.55;26.73;;;;;;;4.26;100.00;102277.03;5089334;28;20475;-68
2022/12/02 04:40:57;;;;;;;52.22;25.42;;;;;;;4.25;100.00;102272.66;5055989;28;20048;-68
2022/12/02 04:43:22;;;;;;;51.33;24.77;;;;;;;4.24;100.00;102273.63;5054771;28;20104;-68
2022/12/02 04:45:48;;;;;;;57.83;26.27;;;;;;;4.22;100.00;102279.16;5054974;28;20034;-68
2022/12/02 04:48:13;;;;;;;58.72;26.33;;;;;;;4.20;100.00;102272.28;5055104;28;20041;-67
2022/12/02 04:50:38;;;;;;;53.60;23.60;;;;;;;4.21;100.00;102279.28;5054597;28;20021;-67
2022/12/02 04:53:03;;;;;;;52.67;24.75;;;;;;;4.14;100.00;102268.34;5076126;28;20028;-66
2022/12/02 04:55:29;;;;;;;51.33;23.60;;;;;;;4.08;100.00;102263.56;5094840;28;20470;-68
2022/12/02 04:57:54;;;;;;;53.38;23.17;;;;;;;4.07;100.00;102272.59;5094997;28;20032;-68
2022/12/02 05:00:20;;;;;;;46.67;22.83;;;;;;;4.06;100.00;102265.53;5093458;28;20036;-67
2022/12/02 05:02:45;;;;;;;47.92;22.80;;;;;;;4.07;100.00;102259.19;5071428;28;20028;-68
2022/12/02 05:05:11;;;;;;;39.58;20.35;;;;;;;4.06;100.00;102261.03;5073818;28;20024;-68
2022/12/02 05:07:36;;;;;;;38.35;19.08;;;;;;;4.03;100.00;102260.47;5080497;28;20066;-68
2022/12/02 05:10:03;;;;;;;41.85;21.05;;;;;;;3.98;100.00;102250.19;5093404;28;20028;-69
2022/12/02 05:12:28;;;;;;;39.78;19.42;;;;;;;3.99;100.00;102257.25;5094544;28;20028;-67
2022/12/02 05:14:53;;;;;;;40.05;18.60;;;;;;;4.01;100.00;102257.94;5094759;28;20024;-67
2022/12/02 05:17:19;;;;;;;41.38;19.40;;;;;;;3.98;100.00;102249.38;5094699;28;20079;-67
2022/12/02 05:19:44;;;;;;;41.88;19.80;;;;;;;4.02;100.00;102248.94;5094633;28;20055;-67
2022/12/02 05:22:10;;;;;;;44.47;21.63;;;;;;;4.05;100.00;102245.13;5086895;28;20040;-67
2022/12/02 05:24:35;;;;;;;40.53;19.45;;;;;;;4.07;100.00;102240.44;5066025;28;20079;-68
2022/12/02 05:27:00;;;;;;;44.08;22.33;;;;;;;4.02;100.00;102246.25;5054201;28;20460;-68
2022/12/02 05:29:25;;;;;;;46.20;21.13;;;;;;;4.07;100.00;102245.81;5054030;28;20071;-68
2022/12/02 05:31:51;;;;;;;40.90;21.00;;;;;;;4.10;100.00;102245.50;5054161;28;20067;-67
2022/12/02 05:34:16;;;;;;;44.55;20.73;;;;;;;4.12;100.00;102242.69;5053872;28;20020;-68
2022/12/02 05:36:42;;;;;;;44.47;21.83;;;;;;;4.13;100.00;102255.09;5055974;28;20044;-67
2022/12/02 05:39:07;;;;;;;43.10;20.98;;;;;;;4.12;100.00;102251.53;5085954;28;20447;-67
2022/12/02 05:41:32;;;;;;;42.80;20.42;;;;;;;4.12;100.00;102250.72;5093939;28;20031;-68
2022/12/02 05:44:07;;;;;;;40.00;20.10;;;;;;;4.12;100.00;102232.78;5092494;28;20535;-68
2022/12/02 05:46:34;;;;;;;40.92;19.80;;;;;;;4.12;100.00;102237.31;5083629;28;20029;-68
2022/12/02 05:48:59;;;;;;;42.08;19.77;;;;;;;4.07;100.00;102235.91;5053742;28;20032;-68
2022/12/02 05:51:25;;;;;;;46.53;21.38;;;;;;;4.01;100.00;102231.16;5053431;28;20484;-68
2022/12/02 05:53:50;;;;;;;40.05;20.67;;;;;;;4.02;100.00;102235.53;5066513;28;20024;-69
2022/12/02 05:56:27;;;;;;;39.95;20.20;;;;;;;4.05;100.00;102232.56;5071936;28;20036;-68
2022/12/02 05:59:00;;;;;;;41.70;18.45;;;;;;;4.02;100.00;102243.56;5073297;28;20029;-68
2022/12/02 06:01:32;;;;;;;39.63;18.75;;;;;;;4.02;100.00;102242.72;5070995;28;20169;-68
2022/12/02 06:03:58;;;;;;;39.17;18.27;;;;;;;4.00;100.00;102239.34;5073190;28;20410;-68
2022/12/02 06:06:32;;;;;;;37.80;18.27;;;;;;;4.02;100.00;102240.06;5072976;28;20032;-69
2022/12/02 06:08:58;;;;;;;39.95;18.70;;;;;;;4.00;100.00;102233.97;5067708;28;20087;-69
2022/12/02 06:11:33;;;;;;;34.97;17.13;;;;;;;4.02;100.00;102243.56;5053143;28;20029;-68
2022/12/02 06:14:02;;;;;;;39.95;17.67;;;;;;;3.97;100.00;102234.28;5052549;28;20033;-68
2022/12/02 06:16:30;;;;;;;44.70;18.23;;;;;;;3.97;100.00;102234.28;5052763;28;20434;-67
2022/12/02 06:18:58;;;;;;;40.70;18.55;;;;;;;3.97;100.00;102245.00;5053214;28;20041;-68
2022/12/02 06:21:24;;;;;;;36.47;17.10;;;;;;;4.01;100.00;102241.03;5052950;28;20037;-67
2022/12/02 06:23:52;;;;;;;39.83;18.23;;;;;;;4.02;100.00;102232.84;5087250;28;20065;-67
2022/12/02 06:26:19;;;;;;;37.78;18.13;;;;;;;4.03;100.00;102236.38;5093321;28;20025;-67
2022/12/02 06:28:51;;;;;;;36.08;17.15;;;;;;;4.03;100.00;102239.91;5092872;28;20038;-69
2022/12/02 06:31:24;;;;;;;42.30;19.25;;;;;;;4.02;100.00;102238.22;5088525;28;20383;-70
2022/12/02 06:33:52;;;;;;;38.65;17.38;;;;;;;4.00;100.00;102237.53;5052711;28;20059;-67
2022/12/02 06:36:24;;;;;;;34.72;16.75;;;;;;;4.00;100.00;102237.53;5051728;28;20384;-68
2022/12/02 06:38:57;;;;;;;41.42;18.88;;;;;;;4.02;100.00;102234.69;5091290;28;20031;-68
2022/12/02 06:41:24;;;;;;;39.10;20.35;;;;;;;3.95;100.00;102242.47;5092834;28;20028;-67
2022/12/02 06:46:35;;;;;;;37.53;17.50;;;;;;;3.91;100.00;102235.72;5092861;28;20123;-68
2022/12/02 06:49:21;;;;;;;38.13;16.83;;;;;;;3.90;100.00;102234.88;5090145;28;20031;-68
2022/12/02 06:51:59;;;;;;;36.60;16.67;;;;;;;3.90;100.00;102236.72;5093005;28;20408;-67
2022/12/02 06:54:28;;;;;;;40.30;17.88;;;;;;;3.88;100.00;102234.19;5080718;28;20032;-68
2022/12/02 06:56:56;;;;;;;39.38;17.10;;;;;;;3.92;100.00;102236.56;5052659;28;20036;-67
2022/12/02 06:59:22;;;;;;;37.35;18.10;;;;;;;3.94;100.00;102246.16;5052372;28;20032;-67
2022/12/02 07:01:51;;;;;;;37.72;18.83;;;;;;;3.93;100.00;102227.56;5050549;28;20094;-68
2022/12/02 07:04:48;;;;;;;42.55;18.20;;;;;;;3.95;100.00;102230.91;5070495;28;20506;-68
2022/12/02 07:07:16;;;;;;;39.28;17.15;;;;;;;3.93;100.00;102240.94;5073600;28;20087;-68
2022/12/02 07:09:45;;;;;;;37.92;17.15;;;;;;;3.93;100.00;102244.44;5091985;28;20059;-69
2022/12/02 07:12:36;;;;;;;36.83;17.15;;;;;;;3.94;100.00;102240.78;5091372;28;20020;-68
2022/12/02 07:15:24;;;;;;;38.40;18.23;;;;;;;3.94;100.00;102256.88;5081074;28;20036;-69
2022/12/02 07:17:50;;;;;;;36.60;16.30;;;;;;;3.89;100.00;102245.72;5067379;28;20033;-67
2022/12/02 07:20:36;;;;;;;37.20;18.15;;;;;;;3.91;100.00;102243.78;5059333;28;20372;-68
2022/12/02 07:23:10;;;;;;;34.83;15.70;;;;;;;3.89;100.00;102243.06;5090468;28;20085;-68
2022/12/02 07:25:37;;;;;;;36.03;16.55;;;;;;;3.87;100.00;102250.41;5094533;28;20043;-67
2022/12/02 07:28:19;;;;;;;38.88;18.23;;;;;;;3.90;100.00;102250.09;5096850;28;20028;-69
2022/12/02 07:31:06;;;;;;;37.67;16.98;;;;;;;3.89;100.00;102251.09;5096820;28;20039;-68
2022/12/02 07:33:31;;;;;;;37.20;15.73;;;;;;;3.91;100.00;102246.44;5096482;28;20028;-67
2022/12/02 07:35:57;;;;;;;34.15;16.08;;;;;;;3.85;100.00;102247.00;5092190;28;20033;-68
2022/12/02 07:38:22;;;;;;;33.85;15.45;;;;;;;3.81;100.00;102242.94;5074198;28;20154;-68
2022/12/02 07:40:47;;;;;;;35.53;17.33;;;;;;;3.82;100.00;102237.44;5074803;28;20024;-67
2022/12/02 07:43:12;;;;;;;33.80;15.93;;;;;;;3.78;100.00;102237.88;5076232;28;20036;-67
2022/12/02 07:45:38;;;;;;;34.83;15.88;;;;;;;3.76;100.00;102237.16;5075669;28;20021;-67
2022/12/02 07:48:03;;;;;;;33.40;15.80;;;;;;;3.74;100.00;102240.00;5076118;28;20031;-68
2022/12/02 07:50:29;;;;;;;33.80;16.02;;;;;;;3.73;100.00;102238.34;5074540;28;20037;-67
2022/12/02 07:52:54;;;;;;;30.80;15.30;;;;;;;3.74;100.00;102240.00;5094093;28;20465;-68
2022/12/02 07:55:19;;;;;;;34.35;15.23;;;;;;;3.78;100.00;102246.75;5096239;28;20028;-68
2022/12/02 07:57:44;;;;;;;35.20;15.35;;;;;;;3.81;100.00;102245.63;5096227;28;20121;-67
2022/12/02 08:00:10;;;;;;;33.72;15.20;;;;;;;3.83;100.00;102235.59;5069673;28;20461;-70
2022/12/02 08:02:36;;;;;;;34.28;17.17;;;;;;;3.84;100.00;102248.00;5053336;28;20108;-69
2022/12/02 08:05:02;;;;;;;32.85;15.88;;;;;;;3.85;100.00;102250.53;5055929;28;20107;-68
2022/12/02 08:07:27;;;;;;;34.17;15.43;;;;;;;3.82;100.00;102258.88;5057938;28;20475;-70
2022/12/02 08:09:53;;;;;;;31.55;15.73;;;;;;;3.78;100.00;102252.09;5075806;28;20031;-72
2022/12/02 08:12:18;;;;;;;32.67;16.27;;;;;;;3.73;100.00;102260.56;5075628;28;20028;-68
2022/12/02 08:14:43;;;;;;;34.92;15.73;;;;;;;3.76;100.00;102248.75;5075399;28;20024;-67
2022/12/02 08:17:08;;;;;;;32.17;15.77;;;;;;;3.69;100.00;102245.78;5075565;28;20376;-67
2022/12/02 08:19:34;;;;;;;35.33;16.15;;;;;;;3.69;100.00;102247.63;5074083;28;20029;-69
2022/12/02 08:21:59;;;;;;;39.42;17.70;;;;;;;3.72;100.00;102250.84;5074480;28;20033;-67
2022/12/02 08:24:24;;;;;;;35.20;16.08;;;;;;;3.71;100.00;102235.78;5075273;28;20029;-69
2022/12/02 08:26:49;;;;;;;34.55;14.77;;;;;;;3.76;100.00;102248.75;5074053;28;20486;-69
2022/12/02 08:29:15;;;;;;;33.40;15.90;;;;;;;3.76;100.00;102247.88;5075324;28;20051;-67
2022/12/02 08:31:40;;;;;;;34.60;15.65;;;;;;;3.77;100.00;102238.88;5075135;28;20071;-68
2022/12/02 08:34:05;;;;;;;34.85;15.52;;;;;;;3.77;100.00;102236.19;5075333;28;20028;-68
2022/12/02 08:36:31;;;;;;;36.50;16.40;;;;;;;3.78;100.00;102237.88;5074408;28;20413;-67
2022/12/02 08:38:56;;;;;;;36.17;15.32;;;;;;;3.82;100.00;102236.59;5089990;28;20059;-69
2022/12/02 08:41:21;;;;;;;33.17;15.65;;;;;;;3.75;100.00;102233.66;5090192;28;20036;-69
2022/12/02 08:43:46;;;;;;;31.45;15.23;;;;;;;3.77;100.00;102236.19;5055942;28;20471;-69
2022/12/02 08:46:13;;;;;;;35.33;17.00;;;;;;;3.77;100.00;102237.03;5055114;28;20033;-69
2022/12/02 08:48:38;;;;;;;36.75;17.88;;;;;;;3.72;100.00;102237.47;5055066;28;20032;-68
2022/12/02 08:51:04;;;;;;;35.92;18.05;;;;;;;3.71;100.00;102249.19;5054898;28;20028;-70
2022/12/02 08:53:30;;;;;;;38.95;18.95;;;;;;;3.70;100.00;102246.66;5070959;28;20028;-69
2022/12/02 08:55:55;;;;;;;40.17;18.60;;;;;;;3.71;100.00;102241.16;5095162;28;20032;-68
2022/12/02 08:58:20;;;;;;;37.13;17.30;;;;;;;3.72;100.00;102236.63;5095467;28;20024;-68
2022/12/02 09:00:46;;;;;;;36.70;17.42;;;;;;;3.68;100.00;102241.44;5092676;28;20012;-69
2022/12/02 09:03:11;;;;;;;38.95;17.42;;;;;;;3.64;100.00;102245.38;5077656;28;20032;-68
2022/12/02 09:05:38;;;;;;;39.38;18.55;;;;;;;3.60;100.00;102237.78;5074559;28;20131;-68
2022/12/02 09:08:04;;;;;;;35.58;17.55;;;;;;;3.59;100.00;102236.94;5078868;28;20044;-69
2022/12/02 09:10:29;;;;;;;40.05;18.85;;;;;;;3.58;100.00;102232.59;5094897;28;20110;-69
2022/12/02 09:12:55;;;;;;;32.08;15.07;;;;;;;3.60;100.00;102238.63;5094914;28;20115;-69
2022/12/02 09:15:20;;;;;;;35.53;15.90;;;;;;;3.59;100.00;102247.63;5094839;28;20024;-68
2022/12/02 09:17:47;;;;;;;33.22;14.88;;;;;;;3.58;100.00;102243.28;5094669;28;20061;-67
2022/12/02 09:20:13;;;;;;;33.30;14.60;;;;;;;3.55;100.00;102236.38;5094686;28;20126;-67
2022/12/02 09:22:38;;;;;;;30.77;14.48;;;;;;;3.54;100.00;102239.22;5092411;28;20038;-67
2022/12/02 09:25:04;;;;;;;28.92;13.75;;;;;;;3.54;100.00;102241.88;5077550;28;20103;-68
2022/12/02 09:27:30;;;;;;;26.27;13.50;;;;;;;3.53;100.00;102245.53;5074219;28;20509;-67
2022/12/02 09:29:55;;;;;;;30.25;14.68;;;;;;;3.52;100.00;102243.88;5073983;28;20064;-68
2022/12/02 09:32:21;;;;;;;31.52;13.00;;;;;;;3.54;100.00;102241.88;5071836;28;20150;-67
2022/12/02 09:34:46;;;;;;;25.33;13.75;;;;;;;3.57;100.00;102238.09;5073791;28;20070;-67
2022/12/02 09:37:11;;;;;;;27.73;12.23;;;;;;;3.58;100.00;102237.06;5073251;28;20035;-67
2022/12/02 09:39:37;;;;;;;24.08;12.05;;;;;;;3.53;100.00;102235.69;5087143;28;20390;-68
2022/12/02 09:42:02;;;;;;;28.60;12.65;;;;;;;3.52;100.00;102230.50;5092751;28;20038;-66
2022/12/02 09:44:27;;;;;;;25.20;12.27;;;;;;;3.51;100.00;102228.78;5093850;28;20045;-66
2022/12/02 09:46:53;;;;;;;26.33;12.57;;;;;;;3.49;100.00;102225.44;5081571;28;20079;-68
2022/12/02 09:49:18;;;;;;;32.53;13.77;;;;;;;3.51;100.00;102221.59;5072648;28;20129;-68
2022/12/02 09:51:43;;;;;;;32.67;13.98;;;;;;;3.52;100.00;102225.13;5073635;28;20028;-69
2022/12/02 09:54:13;;;;;;;28.95;13.02;;;;;;;3.50;100.00;102221.75;5073800;28;20097;-69
2022/12/02 09:56:40;;;;;;;28.05;13.48;;;;;;;3.50;100.00;102216.38;5086974;28;20434;-68
2022/12/02 09:59:12;;;;;;;26.30;12.93;;;;;;;3.47;100.00;102216.69;5090422;28;20387;-68
2022/12/02 10:01:41;;;;;;;28.50;12.70;;;;;;;3.47;100.00;102214.00;5091336;28;20463;-69
2022/12/02 10:04:08;;;;;;;25.42;13.25;;;;;;;3.45;100.00;102224.03;5093826;28;20119;-67
2022/12/02 10:06:33;;;;;;;25.23;13.00;;;;;;;3.45;100.00;102226.69;5093500;28;20032;-68
2022/12/02 10:09:00;;;;;;;32.17;13.25;;;;;;;3.46;100.00;102221.19;5078640;28;20049;-69
2022/12/02 10:11:29;;;;;;;32.97;12.65;;;;;;;3.48;100.00;102215.69;5053833;28;20028;-69
2022/12/02 10:13:55;;;;;;;27.05;12.70;;;;;;;3.49;100.00;102217.41;5053525;28;20029;-69
2022/12/02 10:16:21;;;;;;;28.73;12.68;;;;;;;3.52;100.00;102214.44;5073320;28;20032;-70
2022/12/02 10:18:47;;;;;;;28.50;12.20;;;;;;;3.53;100.00;102210.75;5064211;28;20033;-67
2022/12/02 19:29:55;;;;;;;37.95;18.20;;;;;;;2.59;100.00;102174.81;5109108;27;20370;-68
2022/12/02 19:32:20;;;;;;;39.05;18.38;;;;;;;2.59;100.00;102174.81;5107030;28;20031;-68
2022/12/02 19:34:45;;;;;;;37.85;20.13;;;;;;;2.57;100.00;102163.41;5110422;28;20119;-69
2022/12/02 19:37:11;;;;;;;38.55;20.13;;;;;;;2.55;100.00;102165.41;5108737;28;20023;-68
2022/12/02 19:39:36;;;;;;;37.60;19.77;;;;;;;2.55;100.00;102170.75;5108465;28;20027;-69
2022/12/02 19:42:02;;;;;;;38.75;21.23;;;;;;;2.57;100.00;102171.44;5110311;28;20024;-69
2022/12/02 19:44:27;;;;;;;40.70;22.33;;;;;;;2.59;100.00;102169.47;5110008;28;20081;-67
2022/12/02 19:46:52;;;;;;;36.03;20.33;;;;;;;2.60;100.00;102165.81;5107890;28;20024;-71
2022/12/02 19:49:18;;;;;;;36.20;21.08;;;;;;;2.62;100.00;102165.69;5104247;28;20457;-68
2022/12/02 19:51:43;;;;;;;51.30;27.25;;;;;;;2.60;100.00;102165.81;5086038;28;20522;-69
2022/12/02 19:54:09;;;;;;;48.33;25.40;;;;;;;2.60;100.00;102168.47;5086088;28;20051;-69
2022/12/02 19:56:37;;;;;;;44.60;23.35;;;;;;;2.61;100.00;102172.84;5105366;28;20028;-69
2022/12/02 19:59:04;;;;;;;37.53;20.88;;;;;;;2.65;100.00;102176.09;5089257;28;20043;-71
2022/12/02 20:01:29;;;;;;;34.63;19.45;;;;;;;2.69;100.00;102169.47;5102448;28;20467;-68
2022/12/02 20:03:54;;;;;;;34.40;20.33;;;;;;;2.71;100.00;102166.66;5088896;28;20111;-69
2022/12/02 20:06:19;;;;;;;34.88;20.27;;;;;;;2.72;100.00;102162.97;5108105;28;20016;-70
2022/12/02 20:08:45;;;;;;;35.35;21.13;;;;;;;2.70;100.00;102171.16;5108426;28;20024;-69
2022/12/02 20:11:10;;;;;;;37.40;19.98;;;;;;;2.71;100.00;102172.00;5109244;28;20028;-69
2022/12/02 20:13:36;;;;;;;33.88;20.73;;;;;;;2.71;100.00;102169.34;5104863;28;20111;-68
2022/12/02 20:16:01;;;;;;;33.65;19.88;;;;;;;2.69;100.00;102164.13;5109664;28;20512;-68
2022/12/02 20:18:27;;;;;;;33.45;19.58;;;;;;;2.68;100.00;102162.44;5109093;28;20081;-72
2022/12/02 20:20:52;;;;;;;33.53;18.52;;;;;;;2.70;100.00;102173.00;5109585;28;20371;-68
2022/12/02 20:23:17;;;;;;;33.97;19.52;;;;;;;2.69;100.00;102168.63;5105258;28;20418;-67